createdAt,value
2019-03-28T00:02:16.138Z,12.37
2019-03-28T00:07:24.242Z,13.10
2019-03-28T00:12:30.232Z,13.43
2019-03-28T00:17:36.021Z,13.00
2019-03-28T00:22:50.388Z,13.17
2019-03-28T00:27:57.250Z,13.00
2019-03-28T00:33:03.674Z,12.07
2019-03-28T00:38:10.212Z,11.83
2019-03-28T00:43:16.801Z,11.87
2019-03-28T00:48:23.432Z,11.00
2019-03-28T00:53:31.156Z,11.37
2019-03-28T00:58:36.773Z,11.67
2019-03-28T01:03:44.179Z,12.73
2019-03-28T01:08:51.165Z,11.60
2019-03-28T01:13:58.260Z,11.77
2019-03-28T01:19:05.969Z,12.90
2019-03-28T01:24:13.432Z,12.83
2019-03-28T01:29:19.080Z,13.43
2019-03-28T01:34:24.830Z,12.50
2019-03-28T01:39:30.690Z,13.37
2019-03-28T01:44:38.434Z,12.30
2019-03-28T01:49:45.397Z,13.77
2019-03-28T01:54:52.652Z,14.23
2019-03-28T01:59:58.518Z,14.60
2019-03-28T02:05:07.399Z,14.80
2019-03-28T02:10:14.296Z,14.87
2019-03-28T02:15:21.196Z,14.87
2019-03-28T02:20:28.313Z,16.63
2019-03-28T02:25:46.928Z,15.50
2019-03-28T02:30:52.615Z,16.30
2019-03-28T02:35:59.627Z,17.50
2019-03-28T02:41:07.106Z,16.90
2019-03-28T02:46:13.590Z,17.83
2019-03-28T02:51:41.105Z,18.30
2019-03-28T02:56:47.983Z,17.70
2019-03-28T03:01:53.637Z,18.13
2019-03-28T03:07:00.910Z,18.80
2019-03-28T03:12:07.849Z,19.07
2019-03-28T03:17:13.638Z,19.67
2019-03-28T03:22:20.158Z,18.00
2019-03-28T03:27:26.681Z,16.10
2019-03-28T03:32:33.476Z,15.10
2019-03-28T03:37:39.945Z,14.60
2019-03-28T03:42:47.781Z,14.70
2019-03-28T03:47:54.463Z,15.00
2019-03-28T03:53:02.694Z,15.53
2019-03-28T03:58:16.181Z,15.17
2019-03-28T04:03:19.872Z,15.00
2019-03-28T04:08:27.171Z,15.87
2019-03-28T04:13:34.448Z,16.70
2019-03-28T04:18:41.931Z,15.87
2019-03-28T04:23:48.393Z,17.37
2019-03-28T04:28:55.151Z,16.73
2019-03-28T04:34:07.409Z,17.67
2019-03-28T04:39:09.830Z,17.97
2019-03-28T04:44:16.413Z,16.80
2019-03-28T04:49:21.980Z,17.50
2019-03-28T04:54:27.645Z,16.43
2019-03-28T04:59:33.409Z,19.53
2019-03-28T05:04:40.506Z,18.67
2019-03-28T05:09:47.523Z,19.13
2019-03-28T05:14:54.000Z,18.73
2019-03-28T05:20:01.531Z,18.50
2019-03-28T05:25:09.002Z,19.43
2019-03-28T05:30:16.007Z,19.60
2019-03-28T05:35:23.940Z,19.40
2019-03-28T05:40:29.699Z,20.37
2019-03-28T05:45:35.487Z,21.43
2019-03-28T05:50:41.131Z,22.17
2019-03-28T05:55:47.327Z,23.57
2019-03-28T06:00:53.273Z,23.77
2019-03-28T06:06:01.078Z,22.37
2019-03-28T06:11:07.601Z,21.63
2019-03-28T06:16:14.153Z,20.60
2019-03-28T06:21:23.062Z,20.67
2019-03-28T06:26:30.114Z,21.50
2019-03-28T06:31:36.669Z,22.23
2019-03-28T06:37:01.786Z,22.20
2019-03-28T06:42:08.969Z,22.10
2019-03-28T06:47:15.572Z,21.57
2019-03-28T06:52:21.954Z,20.17
2019-03-28T06:57:27.724Z,19.53
2019-03-28T07:02:33.922Z,20.90
2019-03-28T07:07:40.448Z,19.40
2019-03-28T07:12:46.975Z,21.43
2019-03-28T07:17:53.630Z,20.63
2019-03-28T07:23:00.119Z,21.20
2019-03-28T07:28:06.745Z,21.83
2019-03-28T07:33:13.007Z,18.83
2019-03-28T07:38:20.461Z,20.77
2019-03-28T07:43:27.026Z,21.87
2019-03-28T07:48:32.763Z,21.67
2019-03-28T07:53:40.136Z,21.23
2019-03-28T07:58:46.664Z,21.03
2019-03-28T08:03:53.207Z,19.20
2019-03-28T08:09:00.928Z,19.13
2019-03-28T08:14:08.643Z,17.63
2019-03-28T08:19:15.257Z,18.40
2019-03-28T08:24:20.916Z,18.50
2019-03-28T08:29:27.501Z,18.27
2019-03-28T08:34:33.386Z,17.07
2019-03-28T08:39:44.479Z,17.13
2019-03-28T08:44:50.797Z,20.50
2019-03-28T08:49:58.813Z,21.83
2019-03-28T08:55:10.441Z,21.93
2019-03-28T09:00:32.313Z,21.10
2019-03-28T09:05:25.284Z,19.70
2019-03-28T09:10:32.384Z,21.77
2019-03-28T09:15:43.972Z,21.90
2019-03-28T09:20:46.668Z,21.17
2019-03-28T09:25:55.351Z,22.07
2019-03-28T09:31:02.145Z,22.10
2019-03-28T09:36:07.757Z,19.67
2019-03-28T09:41:14.625Z,21.17
2019-03-28T09:46:20.311Z,22.97
2019-03-28T09:51:27.138Z,23.83
2019-03-28T09:56:33.199Z,22.97
2019-03-28T10:01:38.869Z,22.43
2019-03-28T10:06:45.731Z,22.43
2019-03-28T10:11:53.347Z,22.97
2019-03-28T10:16:59.732Z,22.47
2019-03-28T10:22:07.336Z,22.47
2019-03-28T10:27:14.254Z,22.60
2019-03-28T10:32:32.741Z,19.47
2019-03-28T10:37:39.515Z,22.07
2019-03-28T10:42:46.245Z,23.10
2019-03-28T10:47:53.652Z,22.47
2019-03-28T10:53:00.990Z,21.13
2019-03-28T10:58:18.342Z,22.57
2019-03-28T11:03:17.961Z,21.43
2019-03-28T11:08:27.460Z,23.13
2019-03-28T11:13:34.815Z,22.00
2019-03-28T11:18:43.159Z,21.50
2019-03-28T11:23:49.642Z,20.17
2019-03-28T11:29:00.835Z,19.80
2019-03-28T11:34:06.601Z,21.60
2019-03-28T11:39:13.529Z,22.33
2019-03-28T11:44:21.400Z,22.43
2019-03-28T11:49:28.392Z,19.57
2019-03-28T11:54:34.471Z,20.77
2019-03-28T11:59:40.649Z,21.60
2019-03-28T12:04:48.855Z,21.57
2019-03-28T12:09:55.974Z,22.27
2019-03-28T12:15:02.461Z,21.93
2019-03-28T12:20:21.053Z,21.37
2019-03-28T12:25:28.529Z,19.33
2019-03-28T12:30:34.607Z,17.47
2019-03-28T12:35:43.641Z,19.13
2019-03-28T12:40:51.476Z,17.73
2019-03-28T12:45:57.943Z,20.43
2019-03-28T12:51:05.928Z,12.13
2019-03-28T12:56:12.961Z,14.53
2019-03-28T13:01:20.873Z,16.83
2019-03-28T13:06:26.851Z,14.33
2019-03-28T13:11:32.819Z,13.23
2019-03-28T13:16:39.716Z,13.73
2019-03-28T13:21:46.111Z,14.77
2019-03-28T13:26:53.486Z,15.63
2019-03-28T13:32:03.071Z,14.60
2019-03-28T13:37:10.867Z,14.93
2019-03-28T13:42:17.652Z,15.83
2019-03-28T13:47:24.628Z,16.37
2019-03-28T13:52:32.268Z,18.00
2019-03-28T13:57:39.174Z,19.10
2019-03-28T14:02:55.854Z,20.13
2019-03-28T14:07:56.577Z,19.77
2019-03-28T14:13:03.329Z,18.87
2019-03-28T14:18:11.029Z,19.53
2019-03-28T14:23:19.279Z,19.33
2019-03-28T14:28:26.460Z,18.80
2019-03-28T14:33:32.551Z,17.67
2019-03-28T14:38:42.004Z,19.57
2019-03-28T14:43:49.080Z,17.60
2019-03-28T14:48:57.027Z,16.87
2019-03-28T14:54:03.908Z,16.87
2019-03-28T14:59:12.020Z,18.17
2019-03-28T15:04:18.945Z,16.90
2019-03-28T15:09:26.744Z,17.17
2019-03-28T15:14:35.357Z,16.43
2019-03-28T15:19:42.157Z,16.67
2019-03-28T15:24:51.864Z,15.67
2019-03-28T15:29:58.757Z,15.73
2019-03-28T15:35:07.072Z,16.00
2019-03-28T15:40:14.691Z,15.13
2019-03-28T15:45:23.283Z,15.60
2019-03-28T15:50:31.962Z,15.37
2019-03-28T15:55:41.658Z,15.70
2019-03-28T16:00:49.750Z,15.20
2019-03-28T16:05:58.842Z,16.00
2019-03-28T16:11:05.821Z,15.27
2019-03-28T16:16:13.433Z,16.00
2019-03-28T16:21:21.628Z,14.70
2019-03-28T16:26:30.127Z,14.87
2019-03-28T16:31:37.762Z,14.50
2019-03-28T16:36:47.010Z,15.67
2019-03-28T16:41:56.519Z,15.73
2019-03-28T16:47:03.741Z,15.97
2019-03-28T16:52:12.915Z,15.30
2019-03-28T16:57:40.836Z,15.03
2019-03-28T17:02:50.592Z,16.70
2019-03-28T17:07:59.235Z,16.90
2019-03-28T17:13:08.478Z,16.87
2019-03-28T17:18:18.708Z,17.47
2019-03-28T17:23:25.299Z,16.70
2019-03-28T17:28:33.929Z,20.53
2019-03-28T17:33:42.262Z,18.87
2019-03-28T17:38:51.559Z,17.80
2019-03-28T17:43:58.323Z,17.93
2019-03-28T17:49:05.400Z,17.83
2019-03-28T17:54:13.763Z,17.77
2019-03-28T17:59:22.041Z,17.47
2019-03-28T18:04:29.593Z,17.77
2019-03-28T18:09:37.788Z,18.53
2019-03-28T18:14:46.987Z,20.40
2019-03-28T18:19:53.816Z,21.20
2019-03-28T18:24:59.774Z,22.07
2019-03-28T18:30:09.296Z,21.60
2019-03-28T18:35:15.561Z,21.83
2019-03-28T18:40:22.499Z,22.00
2019-03-28T18:45:28.539Z,22.27
2019-03-28T18:50:36.192Z,21.67
2019-03-28T18:55:43.304Z,21.20
2019-03-28T19:00:49.257Z,21.10
2019-03-28T19:05:55.243Z,20.97
2019-03-28T19:11:01.230Z,20.57
2019-03-28T19:16:08.007Z,20.83
2019-03-28T19:21:14.909Z,21.07
2019-03-28T19:26:20.885Z,20.03
2019-03-28T19:31:27.741Z,20.97
2019-03-28T19:36:35.379Z,19.33
2019-03-28T19:41:41.360Z,19.40
2019-03-28T19:46:47.333Z,19.37
2019-03-28T19:51:54.846Z,19.70
2019-03-28T19:57:04.085Z,18.53
2019-03-28T20:02:14.365Z,20.07
2019-03-28T20:07:23.885Z,20.50
2019-03-28T20:12:33.169Z,22.40
2019-03-28T20:17:41.332Z,22.93
2019-03-28T20:22:49.180Z,22.87
2019-03-28T20:27:57.761Z,21.73
2019-03-28T20:33:07.618Z,19.60
2019-03-28T20:38:16.459Z,19.33
2019-03-28T20:43:23.730Z,19.90
2019-03-28T20:48:32.460Z,19.20
2019-03-28T20:58:50.914Z,17.87
2019-03-28T21:04:00.384Z,17.50
2019-03-28T21:09:10.588Z,18.60
2019-03-28T21:14:21.815Z,17.67
2019-03-28T21:19:30.861Z,18.97
2019-03-28T21:24:38.171Z,19.13
2019-03-28T21:29:49.008Z,18.23
2019-03-28T21:34:57.795Z,18.07
2019-03-28T21:40:08.014Z,17.20
2019-03-28T21:45:15.628Z,19.07
2019-03-28T21:50:22.550Z,18.83
2019-03-28T21:55:29.727Z,18.47
2019-03-28T22:00:37.079Z,17.37
2019-03-28T22:05:44.539Z,17.03
2019-03-28T22:10:51.680Z,17.63
2019-03-28T22:15:58.414Z,15.77
2019-03-28T22:21:06.228Z,15.07
2019-03-28T22:26:14.846Z,13.93
2019-03-28T22:31:23.336Z,14.40
2019-03-28T22:36:30.956Z,14.70
2019-03-28T22:41:37.019Z,14.23
2019-03-28T22:46:42.987Z,13.60
2019-03-28T22:51:49.472Z,13.40
2019-03-28T22:56:56.778Z,14.07
2019-03-28T23:02:03.953Z,15.07
2019-03-28T23:07:14.599Z,14.87
2019-03-28T23:12:21.863Z,15.80
2019-03-28T23:17:28.415Z,16.30
2019-03-28T23:22:35.547Z,16.17
2019-03-28T23:27:43.751Z,15.97
2019-03-28T23:32:52.404Z,15.80
2019-03-28T23:38:01.871Z,15.73
2019-03-28T23:43:09.817Z,16.73
2019-03-28T23:48:18.247Z,17.10
2019-03-28T23:53:26.640Z,16.53
2019-03-28T23:58:34.257Z,15.90
